^^
Meteo Knjazevac Station Historical Data
Daily Summary for August 20, 2021 Units:  English    Metric   Both
Daily Weekly Monthly Yearly Custom
  High: Low: Average:
Temperature: 56.5 °F 40.6 °F 49.1 °F
Dew Point: 47.6 °F 38.2 °F 43.5 °F
Humidity: 91% 70% 81%
Wind Speed: 10mph 0mph 3.6mph
Wind Gust: 18mph - -
Wind- - SW
Pressure: 30.30 in 30.19 in -
Precipitation: 0.00 in    
Historical Graphs
 
 
Tabular Data for August 20, 2021
Time Temperature Dew Point Pressure Wind Wind Speed Wind Gust Humidity Rainfall Rate (Hourly) solar Conditions
00:00 47.7 °F 43.1 °F 30.30 in West 5 mph 9 mph 84% 0.00 in 0 W/m2
00:10 47.7 °F 43.1 °F 30.30 in WSW 5 mph 6 mph 84% 0.00 in 0 W/m2
00:20 47.7 °F 43.1 °F 30.30 in WSW 3 mph 8 mph 84% 0.00 in 0 W/m2
00:30 47.5 °F 43.2 °F 30.30 in WSW 1 mph 5 mph 85% 0.00 in 0 W/m2
00:40 47.6 °F 43.3 °F 30.29 in WSW 3 mph 5 mph 85% 0.00 in 0 W/m2
00:50 47.5 °F 43.2 °F 30.29 in WSW 5 mph 8 mph 85% 0.00 in 0 W/m2
01:00 47.7 °F 43.4 °F 30.29 in SW 6 mph 10 mph 85% 0.00 in 0 W/m2
01:10 47.7 °F 43.4 °F 30.29 in SW 5 mph 9 mph 85% 0.00 in 0 W/m2
01:20 47.8 °F 43.5 °F 30.29 in WSW 5 mph 8 mph 85% 0.00 in 0 W/m2
01:30 47.8 °F 43.5 °F 30.29 in WSW 3 mph 10 mph 85% 0.00 in 0 W/m2
01:40 47.8 °F 43.5 °F 30.29 in WSW 2 mph 6 mph 85% 0.00 in 0 W/m2
01:50 47.8 °F 43.5 °F 30.29 in West 2 mph 6 mph 85% 0.00 in 0 W/m2
02:00 47.8 °F 43.5 °F 30.29 in WSW 3 mph 6 mph 85% 0.00 in 0 W/m2
02:10 47.8 °F 43.5 °F 30.29 in SW 2 mph 7 mph 85% 0.00 in 0 W/m2
02:20 47.7 °F 43.4 °F 30.28 in WSW 2 mph 6 mph 85% 0.00 in 0 W/m2
02:30 47.7 °F 43.4 °F 30.28 in West 1 mph 3 mph 85% 0.00 in 0 W/m2
02:40 47.5 °F 43.2 °F 30.28 in SW 2 mph 3 mph 85% 0.00 in 0 W/m2
02:50 47.5 °F 43.2 °F 30.28 in NW 1 mph 2 mph 85% 0.00 in 0 W/m2
03:00 47.5 °F 43.2 °F 30.28 in Calm   4 mph 85% 0.00 in 0 W/m2
03:10 47.5 °F 43.2 °F 30.27 in ESE 1 mph 5 mph 85% 0.00 in 0 W/m2
03:20 47.5 °F 43.2 °F 30.27 in South 1 mph 5 mph 85% 0.00 in 0 W/m2
03:30 47.5 °F 43.2 °F 30.27 in West 1 mph 5 mph 85% 0.00 in 0 W/m2
03:40 47.5 °F 43.2 °F 30.27 in WSW 1 mph 4 mph 85% 0.00 in 0 W/m2
03:50 47.5 °F 43.2 °F 30.27 in West 1 mph 3 mph 85% 0.00 in 0 W/m2
04:00 47.5 °F 43.2 °F 30.27 in West 1 mph 3 mph 85% 0.00 in 0 W/m2
04:10 47.5 °F 43.2 °F 30.27 in South 2 mph 5 mph 85% 0.00 in 0 W/m2
04:20 47.5 °F 43.2 °F 30.27 in SSW 2 mph 4 mph 85% 0.00 in 0 W/m2
04:30 47.7 °F 43.4 °F 30.27 in SSW 1 mph 4 mph 85% 0.00 in 0 W/m2
04:40 47.7 °F 43.4 °F 30.26 in SSW 3 mph 5 mph 85% 0.00 in 0 W/m2
04:50 47.7 °F 43.4 °F 30.26 in SSW 1 mph 5 mph 85% 0.00 in 0 W/m2
05:00 47.7 °F 43.4 °F 30.26 in WNW 1 mph 2 mph 85% 0.00 in 0 W/m2
05:10 47.8 °F 43.5 °F 30.27 in WSW 2 mph 6 mph 85% 0.00 in 0 W/m2
05:20 47.8 °F 43.5 °F 30.26 in SW 2 mph 5 mph 85% 0.00 in 0 W/m2
05:30 48 °F 43.7 °F 30.26 in SW 3 mph 7 mph 85% 0.00 in 0 W/m2
05:40 48 °F 43.7 °F 30.26 in WSW 2 mph 6 mph 85% 0.00 in 0 W/m2
05:50 48.2 °F 43.6 °F 30.26 in WSW 3 mph 7 mph 84% 0.00 in 0 W/m2
06:00 48.4 °F 43.8 °F 30.26 in WSW 3 mph 7 mph 84% 0.00 in 0 W/m2
06:10 48.6 °F 43.9 °F 30.26 in WSW 5 mph 8 mph 84% 0.00 in 0 W/m2
06:20 48.6 °F 43.9 °F 30.26 in WSW 3 mph 9 mph 84% 0.00 in 0 W/m2
06:30 48.6 °F 43.6 °F 30.26 in SW 5 mph 7 mph 83% 0.00 in 0 W/m2
06:40 48.2 °F 43.3 °F 30.26 in SW 3 mph 7 mph 83% 0.00 in 5 W/m2
06:50 48.2 °F 43.3 °F 30.26 in SW 3 mph 7 mph 83% 0.00 in 13 W/m2
07:00 48.2 °F 43.3 °F 30.26 in SW 3 mph 5 mph 83% 0.00 in 26 W/m2
07:10 48.2 °F 43.3 °F 30.26 in SW 3 mph 5 mph 83% 0.00 in 25 W/m2
07:20 48.2 °F 43.3 °F 30.26 in SW 2 mph 6 mph 83% 0.00 in 20 W/m2
07:30 48.2 °F 43.3 °F 30.26 in South 1 mph 5 mph 83% 0.00 in 28 W/m2
07:40 48.4 °F 43.5 °F 30.26 in WSW 2 mph 4 mph 83% 0.00 in 37 W/m2
07:50 48.6 °F 43.6 °F 30.26 in WSW 5 mph 8 mph 83% 0.00 in 27 W/m2
08:00 48.9 °F 44 °F 30.26 in SW 5 mph 9 mph 83% 0.00 in 40 W/m2
08:10 49.3 °F 43.7 °F 30.26 in SW 5 mph 9 mph 81% 0.00 in 39 W/m2
08:20 49.5 °F 43.9 °F 30.26 in SW 5 mph 8 mph 81% 0.00 in 63 W/m2
08:30 49.6 °F 43.7 °F 30.26 in SW 6 mph 10 mph 80% 0.00 in 86 W/m2
08:40 49.8 °F 43.9 °F 30.26 in SW 7 mph 9 mph 80% 0.00 in 109 W/m2
08:50 50.2 °F 44.2 °F 30.26 in SW 6 mph 10 mph 80% 0.00 in 87 W/m2
09:00 50.4 °F 44.4 °F 30.26 in SW 6 mph 8 mph 80% 0.00 in 122 W/m2
09:10 50.5 °F 44.3 °F 30.26 in WSW 6 mph 10 mph 79% 0.00 in 105 W/m2
09:20 50.9 °F 44.9 °F 30.26 in WSW 7 mph 12 mph 80% 0.00 in 110 W/m2
09:30 51.3 °F 45.6 °F 30.26 in WSW 6 mph 13 mph 81% 0.00 in 145 W/m2
09:40 51.4 °F 45.5 °F 30.26 in WSW 5 mph 13 mph 80% 0.00 in 103 W/m2
09:50 51.4 °F 45.5 °F 30.26 in SW 7 mph 12 mph 80% 0.00 in 84 W/m2
10:00 51.6 °F 46 °F 30.26 in WSW 8 mph 13 mph 81% 0.00 in 174 W/m2
10:10 52 °F 46 °F 30.26 in WSW 10 mph 12 mph 80% 0.00 in 159 W/m2
10:20 52.5 °F 46.5 °F 30.26 in WSW 8 mph 14 mph 80% 0.00 in 373 W/m2
10:30 53.4 °F 47.1 °F 30.26 in West 5 mph 12 mph 79% 0.00 in 214 W/m2
10:40 54.1 °F 47.4 °F 30.25 in WSW 5 mph 10 mph 78% 0.00 in 386 W/m2
10:50 54.7 °F 47.6 °F 30.25 in WSW 5 mph 9 mph 77% 0.00 in 127 W/m2
11:00 54.3 °F 46.6 °F 30.25 in WSW 6 mph 13 mph 75% 0.00 in 134 W/m2
11:10 54.1 °F 46.4 °F 30.24 in WSW 5 mph 15 mph 75% 0.00 in 91 W/m2
11:20 53.8 °F 46 °F 30.24 in WSW 6 mph 14 mph 75% 0.00 in 138 W/m2
11:30 54 °F 46.2 °F 30.24 in WSW 7 mph 17 mph 75% 0.00 in 118 W/m2
11:40 54.1 °F 46.4 °F 30.24 in WSW 8 mph 13 mph 75% 0.00 in 334 W/m2
11:50 55 °F 46.9 °F 30.23 in WSW 10 mph 18 mph 74% 0.00 in 386 W/m2
12:00 55.6 °F 47.1 °F 30.23 in WSW 7 mph 17 mph 73% 0.00 in 380 W/m2
12:10 55.8 °F 46.9 °F 30.23 in West 8 mph 18 mph 72% 0.00 in 369 W/m2
12:20 56.1 °F 47.2 °F 30.23 in West 6 mph 18 mph 72% 0.00 in 317 W/m2
12:30 56.5 °F 46.8 °F 30.23 in West 9 mph 17 mph 70% 0.00 in 354 W/m2
12:40 55.9 °F 46.3 °F 30.23 in WSW 10 mph 17 mph 70% 0.00 in 335 W/m2
12:50 56.3 °F 46.6 °F 30.22 in WSW 9 mph 16 mph 70% 0.00 in 330 W/m2
13:00 55.8 °F 46.1 °F 30.22 in WSW 7 mph 16 mph 70% 0.00 in 316 W/m2
13:10 56.3 °F 46.6 °F 30.22 in West 5 mph 13 mph 70% 0.00 in 155 W/m2
13:20 55.9 °F 46.3 °F 30.22 in WSW 5 mph 13 mph 70% 0.00 in 283 W/m2
13:30 56.1 °F 46.5 °F 30.22 in WSW 7 mph 12 mph 70% 0.00 in 247 W/m2
13:40 55.9 °F 46.3 °F 30.21 in WSW 7 mph 13 mph 70% 0.00 in 167 W/m2
13:50 55.9 °F 46.3 °F 30.21 in WSW 7 mph 14 mph 70% 0.00 in 230 W/m2
14:00 55.8 °F 46.1 °F 30.21 in WSW 6 mph 13 mph 70% 0.00 in 129 W/m2
14:10 55.6 °F 45.9 °F 30.21 in WSW 7 mph 15 mph 70% 0.00 in 119 W/m2
14:20 55.2 °F 46.3 °F 30.21 in West 8 mph 12 mph 72% 0.00 in 68 W/m2
14:30 54.9 °F 46 °F 30.21 in WSW 8 mph 13 mph 72% 0.00 in 126 W/m2
14:40 54.9 °F 46 °F 30.21 in WSW 7 mph 12 mph 72% 0.00 in 70 W/m2
14:50 54.5 °F 46 °F 30.21 in WSW 6 mph 13 mph 73% 0.00 in 70 W/m2
15:00 54 °F 45.5 °F 30.21 in WSW 7 mph 12 mph 73% 0.00 in 45 W/m2
15:10 53.6 °F 45.5 °F 30.21 in WSW 3 mph 12 mph 74% 0.00 in 37 W/m2
15:20 53.2 °F 45.2 °F 30.21 in WSW 5 mph 9 mph 74% 0.00 in 26 W/m2
15:30 53.1 °F 45.3 °F 30.21 in WSW 3 mph 9 mph 75% 0.00 in 19 W/m2
15:40 52.9 °F 45.2 °F 30.21 in WSW 5 mph 9 mph 75% 0.00 in 12 W/m2
15:50 52.7 °F 45 °F 30.21 in WSW 3 mph 8 mph 75% 0.00 in 10 W/m2
16:00 52.3 °F 44.6 °F 30.21 in WSW 2 mph 10 mph 75% 0.00 in 5 W/m2
16:10 52.2 °F 45.2 °F 30.21 in WSW 3 mph 8 mph 77% 0.00 in 0 W/m2
16:20 52 °F 45 °F 30.21 in WSW 5 mph 8 mph 77% 0.00 in 0 W/m2
16:30 51.6 °F 44.6 °F 30.20 in WSW 5 mph 7 mph 77% 0.00 in 0 W/m2
16:40 51.3 °F 44.3 °F 30.20 in WSW 5 mph 8 mph 77% 0.00 in 0 W/m2
16:50 50.9 °F 44.3 °F 30.20 in WSW 3 mph 7 mph 78% 0.00 in 0 W/m2
17:00 50.5 °F 43.9 °F 30.21 in WSW 2 mph 6 mph 78% 0.00 in 0 W/m2
17:10 50.3 °F 44.1 °F 30.20 in WSW 3 mph 6 mph 79% 0.00 in 0 W/m2
17:20 50 °F 43.7 °F 30.20 in WSW 2 mph 5 mph 79% 0.00 in 0 W/m2
17:30 49.6 °F 43.4 °F 30.20 in West 2 mph 5 mph 79% 0.00 in 0 W/m2
17:40 49.3 °F 43.4 °F 30.20 in WSW 2 mph 4 mph 80% 0.00 in 0 W/m2
17:50 48.7 °F 42.8 °F 30.20 in WSW 3 mph 6 mph 80% 0.00 in 0 W/m2
18:00 48.7 °F 43.2 °F 30.20 in WSW 2 mph 5 mph 81% 0.00 in 0 W/m2
18:10 48.2 °F 42.6 °F 30.20 in Calm   3 mph 81% 0.00 in 0 W/m2
18:20 47.7 °F 42.1 °F 30.20 in West 1 mph 3 mph 81% 0.00 in 0 W/m2
18:30 47.3 °F 42.4 °F 30.20 in SE 1 mph 3 mph 83% 0.00 in 0 W/m2
18:40 46.8 °F 41.9 °F 30.20 in SSE 2 mph 3 mph 83% 0.00 in 0 W/m2
18:50 46.2 °F 41.3 °F 30.20 in SSE 2 mph 5 mph 83% 0.00 in 0 W/m2
19:00 45.7 °F 40.8 °F 30.20 in SSE 1 mph 3 mph 83% 0.00 in 0 W/m2
19:10 45.1 °F 40.6 °F 30.20 in SW 1 mph 6 mph 84% 0.00 in 0 W/m2
19:20 44.8 °F 40.5 °F 30.20 in Calm   5 mph 85% 0.00 in 0 W/m2
19:30 44.6 °F 40.3 °F 30.19 in Calm   4 mph 85% 0.00 in 0 W/m2
19:40 44.1 °F 39.8 °F 30.20 in South 2 mph 6 mph 85% 0.00 in 0 W/m2
19:50 43.7 °F 39.8 °F 30.19 in SSE 1 mph 6 mph 86% 0.00 in 0 W/m2
20:00 43.3 °F 39.4 °F 30.20 in SSE 1 mph 3 mph 86% 0.00 in 0 W/m2
20:10 43.2 °F 39.8 °F 30.20 in SE 1 mph 4 mph 88% 0.00 in 0 W/m2
20:20 43 °F 39.6 °F 30.20 in NW 1 mph 2 mph 88% 0.00 in 0 W/m2
20:30 42.6 °F 39.3 °F 30.20 in Calm   2 mph 88% 0.00 in 0 W/m2
20:40 42.3 °F 39.2 °F 30.20 in Calm   2 mph 89% 0.00 in 0 W/m2
20:50 42.1 °F 39.1 °F 30.20 in West 1 mph 3 mph 89% 0.00 in 0 W/m2
21:00 42.1 °F 39.4 °F 30.20 in SSE 2 mph 4 mph 90% 0.00 in 0 W/m2
21:10 41.9 °F 38.9 °F 30.20 in Calm   3 mph 89% 0.00 in 0 W/m2
21:20 41.9 °F 39.2 °F 30.20 in SE 1 mph 4 mph 90% 0.00 in 0 W/m2
21:30 41.9 °F 39.2 °F 30.20 in ESE 2 mph 5 mph 90% 0.00 in 0 W/m2
21:40 41.9 °F 39.2 °F 30.20 in ESE 1 mph 5 mph 90% 0.00 in 0 W/m2
21:50 41.5 °F 38.8 °F 30.20 in ESE 1 mph 5 mph 90% 0.00 in 0 W/m2
22:00 41.5 °F 39.1 °F 30.20 in South 2 mph 5 mph 91% 0.00 in 0 W/m2
22:10 41.5 °F 39.1 °F 30.20 in SE 2 mph 5 mph 91% 0.00 in 0 W/m2
22:20 41.5 °F 39.1 °F 30.20 in SE 1 mph 4 mph 91% 0.00 in 0 W/m2
22:30 41.4 °F 38.9 °F 30.20 in SSE 1 mph 4 mph 91% 0.00 in 0 W/m2
22:40 41.2 °F 38.8 °F 30.20 in Calm   3 mph 91% 0.00 in 0 W/m2
22:50 41 °F 38.6 °F 30.20 in ESE 1 mph 3 mph 91% 0.00 in 0 W/m2
23:00 40.6 °F 38.2 °F 30.20 in NNW 1 mph 4 mph 91% 0.00 in 0 W/m2
Knjazevac, Serbia
Compliments of Weather Underground - 2 mb